Time;durP1;ratioP1;P1;durP2;ratioP2;P2;SDS_P1;SDS_P2;PMS_P1;PMS_P2;Temp;Humidity;BMP_temperature;BMP_pressure;BME280_temperature;BME280_humidity;BME280_pressure;Samples;Min_cycle;Max_cycle;Signal;HPM_P1;HPM_P2
2022/12/23 00:00:06;;;;;;;2.80;1.20;;;14.00;52.30;;;;;;5013663;28;20448;-73
2022/12/23 00:02:31;;;;;;;2.67;1.10;;;13.30;54.00;;;;;;5007749;28;20678;-72
2022/12/23 00:04:57;;;;;;;2.80;1.30;;;13.50;55.30;;;;;;5012272;28;20417;-74
2022/12/23 00:07:22;;;;;;;3.07;1.40;;;13.80;53.90;;;;;;5013584;28;20610;-72
2022/12/23 00:09:48;;;;;;;2.70;1.13;;;14.10;52.10;;;;;;5013334;28;20180;-72
2022/12/23 00:15:07;;;;;;;2.70;1.20;;;14.00;55.30;;;;;;5013233;28;20238;-72
2022/12/23 00:17:39;;;;;;;2.70;1.10;;;13.80;56.50;;;;;;5013440;28;20391;-72
2022/12/23 00:20:05;;;;;;;7.60;1.83;;;13.40;56.10;;;;;;5013316;28;20409;-72
2022/12/23 00:25:15;;;;;;;2.70;1.10;;;13.20;57.30;;;;;;5004449;28;20516;-72
2022/12/23 00:27:41;;;;;;;2.90;1.30;;;13.60;55.50;;;;;;5013109;28;20431;-73
2022/12/23 00:30:09;;;;;;;2.83;1.20;;;14.00;54.50;;;;;;5011888;28;20186;-72
2022/12/23 00:32:35;;;;;;;2.77;1.20;;;13.80;54.60;;;;;;5012056;28;20549;-75
2022/12/23 00:35:00;;;;;;;2.80;1.10;;;13.50;55.60;;;;;;5012172;28;20517;-73
2022/12/23 00:37:29;;;;;;;2.90;1.30;;;14.10;56.10;;;;;;5011728;28;21012;-72
2022/12/23 00:42:53;;;;;;;2.80;1.20;;;14.00;55.20;;;;;;5012491;28;20456;-73
2022/12/23 00:45:19;;;;;;;2.80;1.10;;;13.60;56.10;;;;;;5010761;28;20432;-72
2022/12/23 00:50:32;;;;;;;3.00;1.30;;;13.80;56.30;;;;;;5008832;28;20259;-72
2022/12/23 00:52:58;;;;;;;2.87;1.27;;;14.10;53.30;;;;;;5010191;28;20604;-73
2022/12/23 00:55:24;;;;;;;2.87;1.20;;;14.20;55.90;;;;;;5037458;22;21065;-74
2022/12/23 00:57:50;;;;;;;2.90;1.20;;;14.10;54.70;;;;;;5010043;28;20257;-74
2022/12/23 01:00:16;;;;;;;2.83;1.10;;;14.20;53.40;;;;;;5005871;28;20523;-74
2022/12/23 01:05:35;;;;;;;2.90;1.30;;;14.10;54.10;;;;;;5007214;28;20475;-75
2022/12/23 01:08:05;;;;;;;2.90;1.20;;;14.20;53.90;;;;;;5010613;28;20408;-74
2022/12/23 01:10:33;;;;;;;2.83;1.20;;;14.60;53.40;;;;;;5000931;28;20443;-74
2022/12/23 01:12:58;;;;;;;2.73;1.20;;;14.10;54.90;;;;;;5009866;28;20436;-74
2022/12/23 01:15:24;;;;;;;2.83;1.20;;;14.10;54.30;;;;;;5010477;28;20515;-74
2022/12/23 01:17:49;;;;;;;2.90;1.20;;;13.80;56.60;;;;;;5009466;28;20188;-74
2022/12/23 01:20:15;;;;;;;2.80;1.20;;;14.10;56.30;;;;;;5008175;28;20188;-74
2022/12/23 01:22:40;;;;;;;2.80;1.10;;;14.20;55.20;;;;;;5009953;28;20294;-75
2022/12/23 01:25:06;;;;;;;2.90;1.20;;;14.00;56.30;;;;;;5006936;28;20656;-74
2022/12/23 01:27:32;;;;;;;2.90;1.17;;;13.90;57.60;;;;;;5010354;28;20185;-75
2022/12/23 01:29:58;;;;;;;2.83;1.20;;;13.70;58.80;;;;;;5010076;28;20434;-74
2022/12/23 01:32:23;;;;;;;2.87;1.10;;;13.80;59.70;;;;;;5008578;28;20197;-74
2022/12/23 01:34:49;;;;;;;2.90;1.10;;;13.90;58.10;;;;;;5009476;28;20188;-74
2022/12/23 01:37:14;;;;;;;2.90;1.13;;;14.40;56.10;;;;;;5007517;28;20187;-74
2022/12/23 01:39:40;;;;;;;2.80;1.20;;;14.50;55.00;;;;;;5010114;28;20183;-74
2022/12/23 01:45:01;;;;;;;3.00;1.30;;;14.60;54.70;;;;;;5010863;28;20211;-74
2022/12/23 01:47:51;;;;;;;2.97;1.30;;;14.60;53.80;;;;;;5005909;28;20472;-74
2022/12/23 01:50:39;;;;;;;2.90;1.13;;;14.50;54.00;;;;;;5023994;28;20434;-74
2022/12/23 01:53:13;;;;;;;2.90;1.10;;;14.40;54.70;;;;;;5009066;28;20436;-74
2022/12/23 01:56:01;;;;;;;3.00;1.30;;;14.60;54.60;;;;;;5008674;28;20499;-74
2022/12/23 01:58:30;;;;;;;2.83;1.10;;;14.80;53.00;;;;;;5009351;28;20431;-74
2022/12/23 02:03:43;;;;;;;2.80;1.10;;;14.90;52.90;;;;;;5006967;28;20616;-74
2022/12/23 02:09:16;;;;;;;2.80;1.10;;;14.70;52.90;;;;;;5008660;28;20984;-75
2022/12/23 02:12:00;;;;;;;2.80;1.10;;;14.40;56.20;;;;;;5011058;28;20924;-74
2022/12/23 02:18:39;;;;;;;2.90;1.20;;;14.30;57.60;;;;;;5011696;28;20437;-74
2022/12/23 02:21:29;;;;;;;2.90;1.10;;;14.20;58.00;;;;;;5003585;28;21031;-74
2022/12/23 02:24:28;;;;;;;2.90;1.10;;;14.20;58.50;;;;;;5015007;28;20459;-75
2022/12/23 02:27:10;;;;;;;2.70;1.10;;;14.60;56.00;;;;;;5014297;28;20481;-75
2022/12/23 02:29:39;;;;;;;2.90;1.20;;;14.30;57.60;;;;;;5010255;28;20438;-75
2022/12/23 02:32:40;;;;;;;2.90;1.20;;;14.40;57.20;;;;;;5013498;28;20427;-74
2022/12/23 02:35:36;;;;;;;2.90;1.20;;;14.80;55.00;;;;;;5014606;28;20864;-74
2022/12/23 02:38:26;;;;;;;2.93;1.20;;;14.50;55.90;;;;;;5014915;28;20398;-75
2022/12/23 02:41:03;;;;;;;3.00;1.30;;;14.70;58.20;;;;;;5012312;28;20525;-75
2022/12/23 02:43:43;;;;;;;2.97;1.20;;;15.00;54.70;;;;;;5012059;28;20826;-74
2022/12/23 02:46:35;;;;;;;2.90;1.20;;;14.90;55.10;;;;;;5012233;28;20466;-74
2022/12/23 02:49:31;;;;;;;2.90;1.13;;;14.80;55.40;;;;;;5011101;28;20396;-74
2022/12/23 02:51:59;;;;;;;2.90;1.10;;;14.70;55.80;;;;;;5009395;28;20439;-74
2022/12/23 02:54:36;;;;;;;3.00;1.23;;;14.70;55.90;;;;;;5012480;28;20432;-75
2022/12/23 02:57:05;;;;;;;2.90;1.10;;;14.10;59.40;;;;;;5018525;28;20513;-74
2022/12/23 02:59:40;;;;;;;2.90;1.20;;;14.20;59.30;;;;;;5017337;28;20407;-76
2022/12/23 03:02:05;;;;;;;3.00;1.20;;;14.30;58.20;;;;;;5007505;28;20434;-74
2022/12/23 03:04:31;;;;;;;2.90;1.10;;;14.40;57.80;;;;;;5012578;28;20434;-75
2022/12/23 03:06:58;;;;;;;2.90;1.10;;;14.30;58.60;;;;;;5013389;28;20177;-75
2022/12/23 03:09:35;;;;;;;2.90;1.17;;;14.60;56.10;;;;;;5014618;28;20176;-74
2022/12/23 03:12:05;;;;;;;2.90;1.20;;;15.10;53.30;;;;;;5010869;28;20441;-77
2022/12/23 03:14:50;;;;;;;3.00;1.23;;;15.40;51.80;;;;;;5011267;28;20430;-75
2022/12/23 03:17:30;;;;;;;2.80;1.10;;;15.30;52.40;;;;;;5013154;28;20907;-74
2022/12/23 03:20:14;;;;;;;2.87;1.20;;;15.10;53.30;;;;;;5005512;28;20428;-74
2022/12/23 03:22:42;;;;;;;2.83;1.10;;;15.20;53.40;;;;;;5000678;28;20838;-74
2022/12/23 03:25:22;;;;;;;2.90;1.20;;;14.60;55.60;;;;;;5012492;28;20459;-74
2022/12/23 03:27:59;;;;;;;2.90;1.20;;;14.40;57.60;;;;;;5012190;28;20434;-74
2022/12/23 03:30:26;;;;;;;2.90;1.20;;;14.20;59.50;;;;;;5011077;28;20506;-74
2022/12/23 03:33:07;;;;;;;2.90;1.20;;;14.70;59.20;;;;;;5013407;28;20424;-74
2022/12/23 03:35:39;;;;;;;2.80;1.10;;;14.70;57.10;;;;;;5013354;28;20942;-74
2022/12/23 03:38:07;;;;;;;2.80;1.10;;;14.60;56.80;;;;;;5012139;28;20431;-74
2022/12/23 03:40:43;;;;;;;2.90;1.10;;;14.30;59.00;;;;;;5012519;28;20445;-74
2022/12/23 03:43:22;;;;;;;2.80;1.10;;;14.70;57.20;;;;;;5013352;28;20604;-75
2022/12/23 03:45:53;;;;;;;2.90;1.20;;;14.70;56.70;;;;;;5011874;28;20797;-75
2022/12/23 03:48:22;;;;;;;2.83;1.10;;;14.80;56.50;;;;;;5008385;28;20441;-74
2022/12/23 03:50:52;;;;;;;2.80;1.10;;;14.90;55.80;;;;;;5013359;28;20759;-74
2022/12/23 03:53:24;;;;;;;3.00;1.27;;;15.10;54.50;;;;;;5012362;28;20438;-75
2022/12/23 03:55:56;;;;;;;3.00;1.20;;;15.00;56.00;;;;;;5012444;28;20451;-75
2022/12/23 03:58:30;;;;;;;2.97;1.30;;;15.20;55.20;;;;;;5010383;28;20490;-75
2022/12/23 04:01:10;;;;;;;2.97;1.20;;;14.50;59.20;;;;;;5001262;28;20436;-74
2022/12/23 04:03:43;;;;;;;2.90;1.20;;;14.30;63.10;;;;;;5011822;28;20444;-74
2022/12/23 04:06:13;;;;;;;2.97;1.20;;;14.70;61.10;;;;;;5012995;28;20426;-74
2022/12/23 04:08:40;;;;;;;2.90;1.10;;;15.30;57.30;;;;;;5012351;28;20910;-74
2022/12/23 04:11:06;;;;;;;2.93;1.27;;;15.80;54.00;;;;;;5008657;28;20510;-74
2022/12/23 04:13:32;;;;;;;2.90;1.10;;;15.70;53.90;;;;;;5012149;28;20412;-74
2022/12/23 04:15:58;;;;;;;2.90;1.13;;;15.60;53.90;;;;;;5012319;28;20785;-74
2022/12/23 04:18:24;;;;;;;3.10;1.30;;;15.70;53.90;;;;;;5008869;28;20770;-74
2022/12/23 04:20:50;;;;;;;2.90;1.20;;;15.80;53.20;;;;;;5003983;28;20435;-74
2022/12/23 04:23:16;;;;;;;2.80;1.10;;;15.80;52.20;;;;;;5010762;28;20526;-74
2022/12/23 04:25:41;;;;;;;2.80;1.13;;;15.60;55.00;;;;;;5012285;28;20204;-74
2022/12/23 04:28:07;;;;;;;2.87;1.13;;;14.90;56.80;;;;;;5011843;28;20176;-74
2022/12/23 04:30:32;;;;;;;2.87;1.10;;;15.00;57.30;;;;;;5010399;28;20235;-74
2022/12/23 04:32:58;;;;;;;2.90;1.20;;;15.10;55.80;;;;;;5012106;28;20640;-74
2022/12/23 04:35:23;;;;;;;2.87;1.10;;;14.80;58.50;;;;;;5012314;28;20199;-74
2022/12/23 04:37:49;;;;;;;2.90;1.20;;;15.20;57.00;;;;;;5012476;28;20664;-74
2022/12/23 04:40:15;;;;;;;3.00;1.27;;;15.00;56.70;;;;;;5010293;28;20201;-73
2022/12/23 04:42:40;;;;;;;2.97;1.20;;;15.40;54.90;;;;;;5011406;28;20280;-72
2022/12/23 04:45:06;;;;;;;2.80;1.10;;;15.60;53.50;;;;;;5012512;28;20197;-73
2022/12/23 04:47:32;;;;;;;2.90;1.10;;;15.40;54.10;;;;;;5012154;28;20232;-72
2022/12/23 04:49:57;;;;;;;3.00;1.30;;;15.50;53.70;;;;;;5021677;28;20428;-73
2022/12/23 04:52:23;;;;;;;2.80;1.10;;;15.30;54.60;;;;;;5023005;28;20259;-72
2022/12/23 04:54:49;;;;;;;2.90;1.17;;;15.40;53.60;;;;;;5026031;28;20192;-72
2022/12/23 04:57:15;;;;;;;3.00;1.23;;;15.40;53.60;;;;;;5024455;28;20173;-72
2022/12/23 04:59:40;;;;;;;2.80;1.00;;;15.80;52.20;;;;;;5012286;28;20861;-73
2022/12/23 05:02:06;;;;;;;3.00;1.20;;;15.70;52.40;;;;;;5009342;28;20445;-73
2022/12/23 05:04:32;;;;;;;2.90;1.17;;;15.90;53.50;;;;;;5011937;28;20180;-73
2022/12/23 05:06:57;;;;;;;3.00;1.30;;;16.00;51.40;;;;;;5012242;28;20216;-73
2022/12/23 05:09:23;;;;;;;2.90;1.10;;;16.00;53.60;;;;;;5012077;28;20536;-74
2022/12/23 05:11:49;;;;;;;2.90;1.10;;;15.70;52.70;;;;;;5011687;28;20204;-74
2022/12/23 05:14:14;;;;;;;2.90;1.10;;;15.70;53.00;;;;;;5011717;28;20420;-74
2022/12/23 05:16:40;;;;;;;3.00;1.20;;;15.80;53.40;;;;;;5011791;28;20200;-74
2022/12/23 05:19:05;;;;;;;2.87;1.10;;;15.50;53.70;;;;;;5010860;28;20187;-73
2022/12/23 05:21:31;;;;;;;2.97;1.23;;;15.50;54.50;;;;;;5013756;28;20247;-74
2022/12/23 05:23:57;;;;;;;2.90;1.20;;;15.90;53.50;;;;;;5013444;28;20294;-73
2022/12/23 05:26:23;;;;;;;2.90;1.07;;;16.00;52.50;;;;;;5013304;28;20212;-73
2022/12/23 05:28:48;;;;;;;2.90;1.23;;;16.10;54.20;;;;;;5016581;28;20169;-73
2022/12/23 05:31:15;;;;;;;2.90;1.20;;;15.40;55.70;;;;;;5011958;28;20256;-74
2022/12/23 05:33:41;;;;;;;2.90;1.10;;;15.80;54.00;;;;;;5009087;28;20185;-73
2022/12/23 05:36:08;;;;;;;3.00;1.30;;;16.00;52.70;;;;;;5011541;28;20941;-74
2022/12/23 05:38:33;;;;;;;3.00;1.23;;;16.20;52.00;;;;;;5011473;28;20499;-73
2022/12/23 05:40:59;;;;;;;2.90;1.20;;;16.20;51.90;;;;;;5011590;28;20495;-74
2022/12/23 05:43:25;;;;;;;2.93;1.23;;;16.00;51.80;;;;;;5007090;28;20238;-73
2022/12/23 05:45:50;;;;;;;2.97;1.20;;;16.00;52.20;;;;;;5011615;28;20556;-73
2022/12/23 05:48:16;;;;;;;3.10;1.30;;;15.90;52.10;;;;;;5011442;28;20181;-73
2022/12/23 05:50:42;;;;;;;3.10;1.37;;;16.00;51.00;;;;;;5012064;28;20211;-73
2022/12/23 05:53:07;;;;;;;3.00;1.20;;;16.30;50.30;;;;;;5012008;28;20169;-73
2022/12/23 05:55:34;;;;;;;3.00;1.20;;;16.20;50.20;;;;;;5011455;28;20638;-74
2022/12/23 05:57:59;;;;;;;2.90;1.20;;;16.10;50.50;;;;;;5012732;28;20757;-74
2022/12/23 06:00:25;;;;;;;2.90;1.20;;;16.20;50.20;;;;;;5013754;28;20490;-74
2022/12/23 06:02:50;;;;;;;2.90;1.20;;;16.30;49.80;;;;;;5004726;28;20762;-74
2022/12/23 06:05:16;;;;;;;3.40;1.60;;;16.30;49.90;;;;;;5012515;28;20341;-74
2022/12/23 06:07:42;;;;;;;3.27;1.53;;;15.90;51.20;;;;;;5010039;28;20314;-74
2022/12/23 06:10:09;;;;;;;3.00;1.20;;;16.20;50.40;;;;;;5012391;28;20173;-74
2022/12/23 06:12:35;;;;;;;2.90;1.10;;;15.80;52.00;;;;;;5013669;28;20689;-74
2022/12/23 06:15:01;;;;;;;3.00;1.30;;;15.80;52.90;;;;;;5014370;28;20455;-74
2022/12/23 06:17:27;;;;;;;2.97;1.20;;;15.80;52.30;;;;;;5015242;28;20927;-74
2022/12/23 06:19:52;;;;;;;2.90;1.20;;;15.70;52.40;;;;;;5013969;28;20429;-74
2022/12/23 06:22:20;;;;;;;2.80;1.00;;;16.00;51.30;;;;;;5013218;28;20200;-74
2022/12/23 06:24:46;;;;;;;2.90;1.20;;;15.20;55.20;;;;;;5015431;28;20592;-74
2022/12/23 06:27:12;;;;;;;2.90;1.20;;;15.60;53.80;;;;;;5014114;28;20504;-74
2022/12/23 06:29:37;;;;;;;3.00;1.23;;;15.70;53.60;;;;;;5014342;28;20523;-74
2022/12/23 06:32:03;;;;;;;2.90;1.10;;;15.70;53.20;;;;;;5014841;28;20543;-74
2022/12/23 06:34:30;;;;;;;2.83;1.10;;;15.80;53.10;;;;;;5003675;28;20264;-74
2022/12/23 06:36:55;;;;;;;2.90;1.10;;;15.80;52.70;;;;;;5013733;28;20529;-73
2022/12/23 06:39:21;;;;;;;2.90;1.20;;;15.60;53.80;;;;;;5014040;28;20844;-73
2022/12/23 06:41:47;;;;;;;3.00;1.20;;;15.50;53.70;;;;;;5015056;28;20827;-73
2022/12/23 06:44:12;;;;;;;2.97;1.20;;;15.80;52.60;;;;;;5014670;28;20242;-73
2022/12/23 06:46:38;;;;;;;2.90;1.20;;;15.60;53.80;;;;;;5013424;28;20207;-75
2022/12/23 06:49:04;;;;;;;2.90;1.20;;;15.30;54.90;;;;;;5014671;28;20182;-76
2022/12/23 06:51:29;;;;;;;2.90;1.10;;;15.70;53.90;;;;;;5014936;28;20184;-76
2022/12/23 06:53:55;;;;;;;2.90;1.20;;;15.80;52.80;;;;;;5014802;28;20177;-76
2022/12/23 06:56:21;;;;;;;2.80;1.10;;;16.00;51.50;;;;;;5013673;28;20310;-76
2022/12/23 06:58:46;;;;;;;3.00;1.30;;;15.80;52.50;;;;;;5011418;28;20653;-76
2022/12/23 07:01:12;;;;;;;2.93;1.30;;;15.50;54.70;;;;;;5014526;28;20706;-75
2022/12/23 07:03:37;;;;;;;2.80;1.00;;;15.30;55.20;;;;;;5012447;28;20205;-75
2022/12/23 07:06:03;;;;;;;2.90;1.20;;;15.50;53.70;;;;;;5012555;28;20200;-75
2022/12/23 07:08:29;;;;;;;2.80;1.00;;;15.80;52.20;;;;;;5003273;28;20196;-74
2022/12/23 07:10:58;;;;;;;2.80;1.10;;;16.10;51.70;;;;;;5014134;28;20260;-74
2022/12/23 07:13:24;;;;;;;2.87;1.10;;;16.00;50.60;;;;;;5014101;28;20259;-74
2022/12/23 07:15:50;;;;;;;2.90;1.20;;;16.20;50.30;;;;;;5011511;28;20830;-74
2022/12/23 07:18:15;;;;;;;2.90;1.20;;;16.10;50.00;;;;;;5011242;28;20487;-74
2022/12/23 07:20:41;;;;;;;2.90;1.20;;;16.10;50.00;;;;;;5011533;28;20230;-74
2022/12/23 07:23:06;;;;;;;2.90;1.20;;;16.10;50.50;;;;;;5004994;28;20224;-75
2022/12/23 07:25:32;;;;;;;2.90;1.13;;;15.90;50.50;;;;;;5013257;28;20209;-75
2022/12/23 07:27:58;;;;;;;2.80;1.10;;;15.90;50.80;;;;;;5014285;28;20183;-75
2022/12/23 07:30:24;;;;;;;2.83;1.20;;;15.90;51.70;;;;;;5012405;28;20188;-75
2022/12/23 07:32:50;;;;;;;2.90;1.10;;;15.80;51.20;;;;;;5009329;28;20185;-75
2022/12/23 07:35:16;;;;;;;2.90;1.10;;;15.90;51.10;;;;;;5013533;28;20433;-75
2022/12/23 07:37:42;;;;;;;2.80;1.10;;;15.80;51.90;;;;;;5013859;28;20424;-75
2022/12/23 07:40:08;;;;;;;2.80;1.10;;;16.00;51.00;;;;;;5011615;28;20435;-75
2022/12/23 07:42:34;;;;;;;2.87;1.20;;;15.70;52.60;;;;;;5011588;28;20211;-75
2022/12/23 07:44:59;;;;;;;2.90;1.20;;;15.90;52.70;;;;;;5013448;28;20430;-75
2022/12/23 07:47:25;;;;;;;2.90;1.20;;;16.20;51.60;;;;;;5012852;28;20209;-74
2022/12/23 07:49:51;;;;;;;2.80;1.10;;;16.20;51.80;;;;;;5013538;28;20180;-74
2022/12/23 07:52:17;;;;;;;2.80;1.10;;;16.20;52.10;;;;;;5011623;28;20258;-75
2022/12/23 07:54:42;;;;;;;2.80;1.20;;;15.90;53.60;;;;;;5011436;28;20212;-75
2022/12/23 07:57:08;;;;;;;2.90;1.20;;;16.00;53.80;;;;;;5010564;28;20531;-75
2022/12/23 07:59:33;;;;;;;2.90;1.20;;;16.10;53.20;;;;;;5011289;28;20601;-74
2022/12/23 08:01:59;;;;;;;2.87;1.10;;;15.90;54.80;;;;;;5010209;28;20180;-75
2022/12/23 08:04:24;;;;;;;2.90;1.10;;;15.80;54.90;;;;;;5010621;28;20219;-77
2022/12/23 08:06:50;;;;;;;2.83;1.13;;;16.10;54.20;;;;;;5013138;28;20283;-74
2022/12/23 08:09:16;;;;;;;2.90;1.10;;;16.30;53.40;;;;;;5012541;28;20256;-74
2022/12/23 08:11:41;;;;;;;2.90;1.17;;;16.20;53.00;;;;;;5013016;28;20180;-75
2022/12/23 08:14:07;;;;;;;2.80;1.03;;;16.40;54.60;;;;;;5012305;28;20178;-76
2022/12/23 08:16:32;;;;;;;5.30;1.40;;;15.70;55.90;;;;;;5012594;28;20282;-76
2022/12/23 08:18:58;;;;;;;2.90;1.20;;;15.90;56.30;;;;;;5009641;28;20175;-76
2022/12/23 08:21:24;;;;;;;2.87;1.20;;;15.90;56.10;;;;;;5009705;28;20242;-76
2022/12/23 08:23:50;;;;;;;2.83;1.10;;;15.60;59.00;;;;;;5013482;28;20219;-77
2022/12/23 08:26:21;;;;;;;2.80;1.00;;;15.40;60.40;;;;;;5010019;28;20205;-76
2022/12/23 08:28:48;;;;;;;2.87;1.20;;;15.70;58.80;;;;;;5014163;28;20400;-76
2022/12/23 08:31:15;;;;;;;2.80;1.10;;;15.70;58.20;;;;;;5011834;28;20430;-75
2022/12/23 08:33:43;;;;;;;2.70;1.10;;;15.80;58.20;;;;;;5012784;28;20423;-75
2022/12/23 08:36:13;;;;;;;2.90;1.20;;;15.00;64.40;;;;;;5009092;28;20540;-76
2022/12/23 08:38:39;;;;;;;2.90;1.20;;;15.50;62.50;;;;;;5005807;28;20437;-75
2022/12/23 08:41:09;;;;;;;2.73;1.10;;;15.40;60.90;;;;;;5011312;28;20424;-74
2022/12/23 08:43:34;;;;;;;2.93;1.30;;;15.20;63.70;;;;;;5012481;28;20224;-75
2022/12/23 08:46:00;;;;;;;2.80;1.10;;;15.70;61.10;;;;;;5011104;28;20960;-75
2022/12/23 08:48:26;;;;;;;2.80;1.10;;;16.10;58.30;;;;;;5011335;28;20244;-75
2022/12/23 08:50:51;;;;;;;2.80;1.10;;;15.90;58.60;;;;;;5004740;28;20181;-75
2022/12/23 08:53:17;;;;;;;2.90;1.20;;;15.60;61.00;;;;;;5011555;28;20619;-76
2022/12/23 08:55:44;;;;;;;2.90;1.30;;;15.60;62.20;;;;;;5011211;28;20215;-75
2022/12/23 08:58:12;;;;;;;2.90;1.20;;;15.60;62.50;;;;;;5003264;28;20256;-74
2022/12/23 09:00:39;;;;;;;2.90;1.20;;;16.00;59.90;;;;;;5008501;28;20432;-74
2022/12/23 09:03:05;;;;;;;2.80;1.10;;;16.30;57.60;;;;;;5009470;28;20479;-74
2022/12/23 09:05:31;;;;;;;2.90;1.23;;;16.60;56.50;;;;;;5003523;28;20502;-75
2022/12/23 09:07:58;;;;;;;2.80;1.00;;;16.40;55.60;;;;;;5008333;28;20439;-74
2022/12/23 09:10:24;;;;;;;2.90;1.20;;;16.50;54.60;;;;;;5008742;28;20435;-75
2022/12/23 09:12:50;;;;;;;2.83;1.10;;;16.50;54.60;;;;;;5012105;28;20416;-74
2022/12/23 09:15:16;;;;;;;2.90;1.20;;;16.50;54.50;;;;;;5008313;28;20243;-74
2022/12/23 09:17:43;;;;;;;2.80;1.10;;;16.70;53.70;;;;;;5008237;28;20179;-73
2022/12/23 09:20:09;;;;;;;2.90;1.20;;;16.90;53.00;;;;;;5007427;28;20184;-74
2022/12/23 09:22:35;;;;;;;2.80;1.20;;;16.90;52.50;;;;;;5009888;28;20463;-74
2022/12/23 09:25:00;;;;;;;2.90;1.20;;;16.90;51.60;;;;;;5011597;28;20932;-75
2022/12/23 09:27:26;;;;;;;2.80;1.10;;;16.80;53.00;;;;;;5011226;28;20173;-75
2022/12/23 09:29:52;;;;;;;2.80;1.10;;;16.70;53.20;;;;;;5012665;28;20186;-74
2022/12/23 09:32:18;;;;;;;2.90;1.20;;;16.50;54.70;;;;;;5008593;28;20208;-75
2022/12/23 09:34:43;;;;;;;2.87;1.20;;;16.40;55.30;;;;;;5006150;28;20649;-75
2022/12/23 09:37:11;;;;;;;3.20;1.30;;;16.50;55.90;;;;;;5012031;28;20415;-74
2022/12/23 09:39:37;;;;;;;2.80;1.13;;;16.70;54.80;;;;;;5011815;28;20247;-74
2022/12/23 09:42:17;;;;;;;2.80;1.10;;;16.50;55.10;;;;;;5010906;28;20447;-74
2022/12/23 09:45:00;;;;;;;3.10;1.40;;;16.70;54.80;;;;;;5011423;28;20169;-74
2022/12/23 09:47:28;;;;;;;2.87;1.20;;;16.90;54.10;;;;;;5010411;28;21033;-74
2022/12/23 09:49:59;;;;;;;3.07;1.30;;;16.90;52.90;;;;;;5011698;28;20412;-75
2022/12/23 09:52:36;;;;;;;2.80;1.20;;;16.50;54.70;;;;;;5011546;28;20401;-74
2022/12/23 09:55:02;;;;;;;3.10;1.40;;;16.40;55.60;;;;;;5001937;28;20456;-73
2022/12/23 09:58:06;;;;;;;3.30;1.50;;;16.50;55.50;;;;;;5002811;28;20458;-75
2022/12/23 10:00:40;;;;;;;3.30;1.63;;;16.70;54.30;;;;;;4989729;28;20210;-74
2022/12/23 10:03:24;;;;;;;2.90;1.30;;;17.00;53.10;;;;;;4989498;28;20452;-74
2022/12/23 10:06:01;;;;;;;3.20;1.40;;;16.90;53.10;;;;;;4989841;28;20440;-74
2022/12/23 10:08:35;;;;;;;4.23;2.53;;;16.80;53.90;;;;;;5005058;28;20438;-75
2022/12/23 10:11:13;;;;;;;2.83;1.20;;;17.00;53.00;;;;;;5007462;28;20991;-74
2022/12/23 10:13:47;;;;;;;2.90;1.30;;;17.20;52.60;;;;;;5003437;28;20432;-73
2022/12/23 10:16:22;;;;;;;4.70;1.90;;;17.20;53.00;;;;;;5012427;28;20531;-73
2022/12/23 10:19:13;;;;;;;3.00;1.20;;;17.30;52.90;;;;;;5012495;28;20429;-73
2022/12/23 10:21:45;;;;;;;2.90;1.30;;;17.20;53.30;;;;;;5016410;28;20432;-73
2022/12/23 10:24:21;;;;;;;2.80;1.20;;;17.50;52.30;;;;;;5016303;28;20497;-76
2022/12/23 10:27:14;;;;;;;2.90;1.30;;;17.70;51.20;;;;;;5023617;28;20456;-74
2022/12/23 10:29:41;;;;;;;2.87;1.20;;;17.90;52.00;;;;;;5029750;28;20424;-74
2022/12/23 10:32:15;;;;;;;2.80;1.20;;;17.40;52.80;;;;;;5019840;28;20425;-74
2022/12/23 10:34:47;;;;;;;2.90;1.30;;;17.40;53.10;;;;;;5002462;28;20432;-75
2022/12/23 10:37:21;;;;;;;2.83;1.20;;;17.50;53.10;;;;;;4996395;28;20452;-75
2022/12/23 10:39:52;;;;;;;2.90;1.30;;;17.70;53.80;;;;;;5010147;28;20463;-76
2022/12/23 10:42:42;;;;;;;2.90;1.20;;;17.60;51.70;;;;;;5014178;28;20435;-75
2022/12/23 10:45:38;;;;;;;2.90;1.20;;;17.00;50.40;;;;;;5011859;28;20452;-76
2022/12/23 10:48:29;;;;;;;2.80;1.20;;;16.80;50.90;;;;;;4962231;28;20783;-76
2022/12/23 10:51:09;;;;;;;2.77;1.10;;;17.40;48.40;;;;;;5008507;28;20432;-75
2022/12/23 10:53:40;;;;;;;2.80;1.20;;;17.40;46.90;;;;;;5013628;28;20972;-77
2022/12/23 10:56:07;;;;;;;2.80;1.20;;;17.20;47.50;;;;;;5005939;28;20467;-77
2022/12/23 10:58:40;;;;;;;2.80;1.30;;;17.10;47.90;;;;;;5010810;28;20427;-74
2022/12/23 11:01:07;;;;;;;2.80;1.10;;;17.30;46.80;;;;;;5011369;28;20463;-76
2022/12/23 11:03:39;;;;;;;2.93;1.37;;;16.40;48.90;;;;;;5011764;28;20464;-76
2022/12/23 11:06:07;;;;;;;2.90;1.30;;;16.00;53.00;;;;;;5012487;28;20506;-76
2022/12/23 11:08:35;;;;;;;2.80;1.30;;;16.50;50.80;;;;;;5012660;28;20432;-77
2022/12/23 11:11:00;;;;;;;2.87;1.30;;;16.70;49.60;;;;;;5008815;28;20441;-75
2022/12/23 11:13:36;;;;;;;2.70;1.17;;;17.20;49.10;;;;;;5008159;28;20441;-77
2022/12/23 11:16:15;;;;;;;2.80;1.20;;;17.40;47.40;;;;;;5014173;28;20205;-77
2022/12/23 11:18:51;;;;;;;2.90;1.30;;;17.10;47.30;;;;;;5014664;28;20795;-76
2022/12/23 11:21:16;;;;;;;2.80;1.10;;;17.10;48.10;;;;;;5013557;28;20443;-76
2022/12/23 11:23:42;;;;;;;2.90;1.30;;;17.10;49.30;;;;;;5007857;28;20464;-76
2022/12/23 11:26:12;;;;;;;2.90;1.30;;;17.60;46.70;;;;;;5011048;28;20197;-76
2022/12/23 11:28:49;;;;;;;2.90;1.30;;;18.20;45.00;;;;;;5014046;28;20177;-76
2022/12/23 11:31:28;;;;;;;2.80;1.20;;;18.50;43.30;;;;;;5013956;28;20408;-77
2022/12/23 11:34:00;;;;;;;2.80;1.10;;;18.60;43.20;;;;;;5007884;28;20433;-76
2022/12/23 11:36:28;;;;;;;2.73;1.17;;;18.60;43.40;;;;;;5015013;28;20436;-76
2022/12/23 11:39:13;;;;;;;2.80;1.23;;;18.20;45.60;;;;;;5032645;28;20431;-76
2022/12/23 11:41:41;;;;;;;2.80;1.20;;;18.20;45.70;;;;;;5014937;28;20463;-76
2022/12/23 11:44:25;;;;;;;2.80;1.20;;;18.30;46.20;;;;;;5013092;28;20468;-77
2022/12/23 11:46:51;;;;;;;2.90;1.30;;;18.40;44.10;;;;;;5005756;28;20458;-76
2022/12/23 11:49:16;;;;;;;2.90;1.30;;;18.20;44.90;;;;;;5013665;28;20424;-76
2022/12/23 11:51:44;;;;;;;3.03;1.40;;;18.30;44.60;;;;;;5011119;28;20177;-76
2022/12/23 11:54:28;;;;;;;2.73;1.10;;;18.50;44.30;;;;;;5012800;28;20177;-76
2022/12/23 11:56:54;;;;;;;2.90;1.20;;;17.70;46.50;;;;;;5011654;28;20865;-76
2022/12/23 11:59:35;;;;;;;2.83;1.20;;;17.30;46.30;;;;;;5012978;28;20483;-76
2022/12/23 12:02:04;;;;;;;2.80;1.20;;;17.30;47.10;;;;;;5007609;28;20811;-76
2022/12/23 12:04:35;;;;;;;2.90;1.20;;;17.60;46.80;;;;;;5004553;28;20470;-76
2022/12/23 12:07:03;;;;;;;2.80;1.20;;;17.00;48.10;;;;;;5011499;28;20422;-76
2022/12/23 12:09:31;;;;;;;2.77;1.20;;;16.80;49.50;;;;;;5010653;28;20435;-76
2022/12/23 12:12:05;;;;;;;2.87;1.20;;;16.70;50.10;;;;;;5012642;28;20439;-76
2022/12/23 12:14:50;;;;;;;2.90;1.30;;;16.90;49.20;;;;;;5012909;28;20495;-76
2022/12/23 12:17:47;;;;;;;2.77;1.20;;;17.00;49.00;;;;;;5012206;28;20429;-76
2022/12/23 12:20:29;;;;;;;2.90;1.30;;;16.80;51.30;;;;;;5009383;28;20428;-76
2022/12/23 12:23:01;;;;;;;3.97;2.27;;;16.90;50.80;;;;;;5008892;28;20451;-76
2022/12/23 12:25:44;;;;;;;2.80;1.20;;;17.00;50.00;;;;;;5007059;28;20464;-75
2022/12/23 12:28:15;;;;;;;2.80;1.20;;;16.90;50.50;;;;;;5009982;28;20431;-76
2022/12/23 12:30:54;;;;;;;2.77;1.10;;;17.10;49.90;;;;;;5009429;28;20443;-75
2022/12/23 12:33:37;;;;;;;2.83;1.30;;;17.40;49.10;;;;;;5012007;28;20504;-76
2022/12/23 12:36:18;;;;;;;2.73;1.10;;;17.40;50.20;;;;;;5006128;28;20466;-75
2022/12/23 12:38:47;;;;;;;2.83;1.23;;;17.40;50.40;;;;;;5010876;28;20442;-75
2022/12/23 12:41:20;;;;;;;2.80;1.30;;;17.30;51.20;;;;;;5004766;28;21169;-76
2022/12/23 12:44:23;;;;;;;2.80;1.20;;;17.30;50.70;;;;;;5010389;28;20467;-75
2022/12/23 12:46:56;;;;;;;2.80;1.20;;;17.20;49.00;;;;;;5008034;28;20465;-76
2022/12/23 12:49:28;;;;;;;2.80;1.20;;;17.40;47.50;;;;;;5009743;28;20468;-76
2022/12/23 12:52:02;;;;;;;2.83;1.30;;;17.60;47.90;;;;;;5008262;28;20439;-77
2022/12/23 12:54:38;;;;;;;2.90;1.30;;;17.90;46.30;;;;;;5005420;28;20483;-76
2022/12/23 12:57:03;;;;;;;2.80;1.20;;;17.60;46.80;;;;;;5004205;28;20461;-76
2022/12/23 12:59:37;;;;;;;2.90;1.20;;;17.50;46.60;;;;;;5009712;28;20530;-75
2022/12/23 13:02:25;;;;;;;2.83;1.30;;;17.30;46.70;;;;;;5002241;28;20193;-76
2022/12/23 13:04:53;;;;;;;3.20;1.73;;;17.20;49.00;;;;;;5008123;28;20444;-76
2022/12/23 13:07:44;;;;;;;2.80;1.20;;;17.40;48.60;;;;;;5009953;28;20437;-75
2022/12/23 13:10:23;;;;;;;2.90;1.30;;;17.40;48.20;;;;;;5011521;28;20458;-74
2022/12/23 13:13:02;;;;;;;2.80;1.23;;;17.40;47.40;;;;;;5011204;28;20474;-76
2022/12/23 13:15:36;;;;;;;2.80;1.20;;;17.60;45.20;;;;;;5007295;28;20453;-75
2022/12/23 13:18:33;;;;;;;2.80;1.20;;;17.60;44.70;;;;;;5006481;28;20524;-77
2022/12/23 13:21:07;;;;;;;2.80;1.20;;;17.60;45.00;;;;;;5007728;28;20428;-76
2022/12/23 13:23:57;;;;;;;2.90;1.30;;;17.60;44.00;;;;;;5008114;28;20455;-76
2022/12/23 13:26:52;;;;;;;2.80;1.20;;;17.70;43.90;;;;;;5002915;28;20456;-76
2022/12/23 13:29:32;;;;;;;2.90;1.30;;;17.20;45.60;;;;;;4982559;28;20447;-77
2022/12/23 13:32:36;;;;;;;2.87;1.20;;;17.30;45.80;;;;;;5004096;28;20920;-77